createdAt,value
2022-10-23T00:03:15.988Z,1018.309980092446
2022-10-23T00:17:02.957Z,1018.3682280551001
2022-10-23T00:23:39.242Z,1018.3302375526443
2022-10-23T00:32:35.678Z,1018.332839280552
2022-10-23T00:39:03.298Z,1018.352196387427
2022-10-23T00:45:30.573Z,1018.3385063844972
2022-10-23T00:51:58.194Z,1018.2444155870272
2022-10-23T00:58:26.390Z,1018.2228153568847
2022-10-23T01:04:54.164Z,1018.2192407452686
2022-10-23T01:11:21.231Z,1018.1932838404922
2022-10-23T01:17:49.431Z,1018.1890952646603
2022-10-23T01:24:26.015Z,1018.1380294440595
2022-10-23T01:30:53.718Z,1018.1147602862441
2022-10-23T01:37:21.268Z,1018.1223335706541
2022-10-23T01:43:49.260Z,1018.1447779278819
2022-10-23T01:54:15.483Z,1018.1369710627185
2022-10-23T02:00:43.039Z,1018.1636934215592
2022-10-23T02:07:10.457Z,1018.1344918957993
2022-10-23T02:13:38.062Z,1018.1017041604267
2022-10-23T02:24:06.113Z,1018.0342091087912
2022-10-23T02:36:29.907Z,1017.8558986431956
2022-10-23T02:42:58.016Z,1017.8434321626744
2022-10-23T02:49:25.084Z,1017.7272277790177
2022-10-23T02:55:52.853Z,1017.6451343278171
2022-10-23T03:02:19.945Z,1017.6365923859152
2022-10-23T03:09:11.603Z,1017.5869628498241
2022-10-23T03:15:39.107Z,1017.59131197657
2022-10-23T03:25:32.427Z,1017.5167291958828
2022-10-23T03:31:59.873Z,1017.4156407467316
2022-10-23T03:38:27.232Z,1017.3680977381078
2022-10-23T03:44:54.403Z,1017.2853012129284
2022-10-23T03:51:22.511Z,1017.2178697778653
2022-10-23T04:02:57.115Z,1017.1532140233465
2022-10-23T04:09:23.869Z,1017.2697384921868
2022-10-23T04:19:20.360Z,1017.341611695465
2022-10-23T04:25:57.201Z,1017.2634384954453
2022-10-23T04:32:24.405Z,1017.1380400647406
2022-10-23T04:54:55.975Z,1017.0965809495123
2022-10-23T05:06:42.627Z,1017.1415164527245
2022-10-23T05:13:09.797Z,1017.1959140943937
2022-10-23T05:19:36.816Z,1017.1866771474856
2022-10-23T05:26:13.906Z,1017.185064991019
2022-10-23T05:46:57.570Z,1017.0059867180256
2022-10-23T05:53:24.948Z,1016.9151119948903
2022-10-23T05:59:52.022Z,1016.8095489146058
2022-10-23T06:06:19.613Z,1016.7068147258193
2022-10-23T06:12:47.053Z,1016.6476352060872
2022-10-23T06:22:09.840Z,1016.6998015541376
2022-10-23T06:29:03.599Z,1016.6867886994511
2022-10-23T06:40:22.131Z,1016.6054611632578
2022-10-23T06:49:38.926Z,1016.6585976753448
2022-10-23T06:56:10.559Z,1016.6623728785576
2022-10-23T07:02:43.716Z,1016.6313875093819
2022-10-23T07:09:13.704Z,1016.5827050161373
2022-10-23T07:15:43.398Z,1016.5282953483303
2022-10-23T07:35:44.958Z,1016.675929015275
2022-10-23T07:42:20.221Z,1016.6615381305772
2022-10-23T07:54:23.373Z,1016.5370116827194
2022-10-23T08:01:00.898Z,1016.5313426325087
2022-10-23T08:07:36.309Z,1016.4717355494389
2022-10-23T08:14:07.957Z,1016.4885344045715
2022-10-23T08:20:49.793Z,1016.4447153391286
2022-10-23T08:27:20.361Z,1016.4242988252824
2022-10-23T08:33:54.863Z,1016.3229937340234
2022-10-23T08:40:33.861Z,1016.2397072548557
2022-10-23T08:47:21.995Z,1016.1902986537575
2022-10-23T08:53:52.157Z,1016.2136527238757
2022-10-23T09:02:24.377Z,1016.2478068446376
2022-10-23T09:08:57.031Z,1016.1363592572128
2022-10-23T09:16:06.413Z,1015.9932651759542
2022-10-23T09:22:42.272Z,1016.0704909539937
2022-10-23T09:29:17.041Z,1015.9207476529065
2022-10-23T09:35:47.091Z,1015.9224287734284
2022-10-23T09:42:17.160Z,1015.9203869784784
2022-10-23T09:49:45.275Z,1015.8849026627648
2022-10-23T09:56:13.764Z,1015.8578155588399
2022-10-23T10:12:59.938Z,1015.7720875698864
2022-10-23T10:19:27.523Z,1015.7389321187992
2022-10-23T10:26:00.840Z,1015.6154952428378
2022-10-23T10:32:28.628Z,1015.6212149828688
2022-10-23T10:38:56.126Z,1015.434666823481
2022-10-23T10:45:22.993Z,1015.3834512528543
2022-10-23T10:51:51.267Z,1015.2520554572095
2022-10-23T10:58:18.812Z,1015.1336649411656
2022-10-23T11:04:47.551Z,1015.0490016372686
2022-10-23T11:11:42.359Z,1014.9268729391567
2022-10-23T11:18:10.592Z,1014.9159396028523
2022-10-23T11:24:48.206Z,1014.9101454175105
2022-10-23T11:36:25.335Z,1014.7095060492098
2022-10-23T11:42:54.265Z,1014.5969936109742
2022-10-23T11:49:22.176Z,1014.4760267112792
2022-10-23T11:59:55.775Z,1014.3114093842443
2022-10-23T12:19:27.867Z,1013.7591428115238
2022-10-23T12:26:05.982Z,1013.5220638532749
2022-10-23T12:38:24.700Z,1013.3046969550153
2022-10-23T12:44:52.960Z,1013.1611549619503
2022-10-23T12:51:20.461Z,1012.9996912571555
2022-10-23T12:57:49.693Z,1012.7701572831689
2022-10-23T13:16:58.772Z,1012.5144764141334
2022-10-23T13:25:06.513Z,1012.4927103628559
2022-10-23T13:36:35.777Z,1012.3043848525436
2022-10-23T13:43:04.108Z,1012.3045855054986
2022-10-23T13:49:33.003Z,1012.2747636292244
2022-10-23T13:56:01.428Z,1012.1673698545594
2022-10-23T14:02:35.573Z,1012.0407308798899
2022-10-23T14:10:54.702Z,1011.877097675335
2022-10-23T14:17:23.720Z,1011.8961489299658
2022-10-23T14:23:54.019Z,1011.7983085838086
2022-10-23T14:30:22.910Z,1011.7565626663574
2022-10-23T14:37:03.503Z,1011.7142030536702
2022-10-23T14:43:41.146Z,1011.5932456970588
2022-10-23T14:50:10.022Z,1011.2811092486044
2022-10-23T15:03:13.217Z,1010.6389737773111
2022-10-23T15:10:02.060Z,1010.3732252530738
2022-10-23T15:22:27.711Z,1010.5492591352469
2022-10-23T15:28:57.097Z,1010.5392576547115
2022-10-23T15:35:25.139Z,1010.4452520686484
2022-10-23T15:41:55.762Z,1010.4858691587352
2022-10-23T15:48:32.233Z,1010.4868582198014
2022-10-23T15:55:01.549Z,1010.5278092118601
2022-10-23T16:04:32.655Z,1010.3201545689514
2022-10-23T16:11:04.020Z,1010.1892095391569
2022-10-23T16:17:49.206Z,1010.0507386351702
2022-10-23T16:24:50.615Z,1009.9340209174196
2022-10-23T16:31:20.503Z,1009.9266546956267
2022-10-23T16:42:42.990Z,1009.5847835265922
2022-10-23T16:49:30.353Z,1009.4808991441587
2022-10-23T16:56:01.921Z,1009.4367769446055
2022-10-23T17:02:29.909Z,1009.3230638051056
2022-10-23T17:08:59.095Z,1009.1796773663671
2022-10-23T17:19:45.508Z,1009.2057967285009
2022-10-23T17:30:07.177Z,1009.3390973697421
2022-10-23T17:36:46.688Z,1009.288058060997
2022-10-23T17:43:17.049Z,1009.2840366875646
2022-10-23T17:55:52.629Z,1009.4976904671244
2022-10-23T18:02:21.842Z,1009.6620483964736
2022-10-23T18:14:04.249Z,1009.6177167671035
2022-10-23T18:20:45.059Z,1009.6029819116836
2022-10-23T18:27:30.177Z,1009.4093264223917
2022-10-23T18:36:40.365Z,1009.3395873036607
2022-10-23T18:43:15.254Z,1009.329987527893
2022-10-23T18:52:56.535Z,1009.4663215254045
2022-10-23T18:59:37.672Z,1009.5381963316534
2022-10-23T19:06:07.142Z,1009.5101140051065
2022-10-23T19:12:35.904Z,1009.4983269397378
2022-10-23T19:26:15.030Z,1009.1818398929347
2022-10-23T19:32:47.609Z,1008.6809072233581
2022-10-23T19:39:23.249Z,1008.1584878596343
2022-10-23T19:45:57.456Z,1008.0282737551614
2022-10-23T19:52:48.337Z,1008.0757873380178
2022-10-23T20:03:20.438Z,1008.3302713369588
2022-10-23T20:13:38.460Z,1008.1014283406964
2022-10-23T20:20:15.701Z,1008.0824780988057
2022-10-23T20:26:46.106Z,1008.0940734064015
2022-10-23T20:35:12.942Z,1007.9673481499517
2022-10-23T20:41:44.408Z,1008.0126514482578
2022-10-23T20:54:01.724Z,1008.1159599831972
2022-10-23T21:00:34.349Z,1008.3039113546381
2022-10-23T21:07:09.925Z,1008.3928924362447
2022-10-23T21:19:24.233Z,1008.566189768276
2022-10-23T21:26:18.763Z,1008.5869642073603
2022-10-23T21:32:59.588Z,1008.6778199276848
2022-10-23T21:48:12.556Z,1008.6727100205596
2022-10-23T21:54:50.914Z,1008.6075024802859
2022-10-23T22:01:42.901Z,1008.7118142910202
2022-10-23T22:12:25.689Z,1008.8374711589865
2022-10-23T22:18:57.602Z,1008.8019295946907
2022-10-23T22:26:22.701Z,1008.7665063198796
2022-10-23T22:33:54.631Z,1008.6543002523179
2022-10-23T22:41:48.660Z,1008.5299413379926
2022-10-23T22:49:35.442Z,1008.5356231769952
2022-10-23T23:00:48.339Z,1008.5456952681883
2022-10-23T23:08:51.461Z,1008.5277504485395
2022-10-23T23:23:44.798Z,1008.5176892144548
2022-10-23T23:31:49.550Z,1008.5097731092694
2022-10-23T23:39:24.161Z,1008.5617256951318
2022-10-23T23:50:40.283Z,1008.4910967322588
2022-10-23T23:59:27.261Z,1008.5114992848494
